首页
METAR-TAF:

METAR-TAF

机场 :

石家庄正定国际机场

石家庄市, 中华人民共和国

纬度: 38-16-51N, 经度: 114-41-48E, 海拔: 233米

当前天气观测

该预报发布于16分钟前的04:00 UTC
风速4节,风向东转东南,在东转东北之间变化
温度 29°C
湿度 37%
气压 1007 hPa
能见度10公里或以上
1500米以下无云,无积雨云

METAR: ZBSJ 280400Z 12002MPS 060V170 CAVOK 29/13 Q1007 NOSIG

时间: 12:16 (04:16 UTC)

预报

该预报发布于7小时和1分钟前的21:15 UTC
预报有效从28日的 00点(UTC)到 28日的 24点(UTC)
风速6节,风向
能見度: 4000
轻雾,

TAF: ZBSJ 272115Z 2800/2824 18003MPS 4000 BR NSC TX31/2807Z TN14/2822Z

超过4000个机场的气象观测和天气预报(METAR&TAF报告)。

可查询的气象台以黄色和红色小点在地图上表示。

将鼠标移到小点上方,可查看气象台名称。

然后点击查看天气观测和预报。

如需切换地图:点击带黑十字的绿色按钮放大地图;点击带横线的绿色按钮缩小地图;或者点击绿色箭头查看邻近地区的地图。


METAR-TAF: